CDT,Max TemperatureF,Mean TemperatureF,Min TemperatureF,Max Dew PointF,MeanDew PointF,Min DewpointF,Max Humidity, Mean Humidity, Min Humidity, Max Sea Level PressureIn, Mean Sea Level PressureIn, Min Sea Level PressureIn, Max VisibilityMiles, Mean VisibilityMiles, Min VisibilityMiles, Max Wind SpeedMPH, Mean Wind SpeedMPH, Max Gust SpeedMPH,PrecipitationIn, CloudCover, Events, WindDirDegrees
2013-5-1,41,36,30,29,24,20,73,64,53,30.61,30.36,30.06,10,10,10,18,15,23,0.00,2,,333
2013-5-2,42,34,28,25,23,21,78,65,51,30.68,30.61,30.54,10,10,10,20,10,29,0.00,0,,356
2013-5-3,45,36,26,25,22,20,81,57,40,30.52,30.36,30.25,10,10,10,16,10,21,0.00,4,,19
2013-5-4,37,35,33,36,33,29,96,89,73,30.26,30.22,30.17,10,8,2,15,10,18,0.03,8,Rain,27
2013-5-5,53,44,35,43,38,35,100,86,71,30.25,30.20,30.13,10,6,0,8,6,,0.00,8,Fog,5
2013-5-6,69,52,39,47,44,38,93,68,47,30.16,30.12,30.05,10,9,5,8,3,,0.00,2,,278
2013-5-7,75,62,48,48,42,36,86,52,25,30.08,30.02,29.95,10,10,10,12,3,20,0.00,1,,168
2013-5-8,61,58,54,54,50,41,93,77,51,30.06,30.02,29.96,10,9,6,10,4,,0.24,7,Rain,63
2013-5-9,63,55,46,52,45,39,93,73,59,30.19,30.10,30.04,10,10,7,17,8,22,0.03,7,Rain,51
2013-5-10,66,50,35,40,30,23,80,49,22,30.20,30.08,29.91,10,10,10,22,10,33,0.01,1,,21
2013-5-11,50,44,37,34,23,17,70,47,29,30.26,30.20,30.08,10,10,10,29,17,41,0.00,1,,337
2013-5-12,57,42,30,25,20,16,72,40,21,30.28,30.21,30.11,10,10,10,16,7,22,0.00,0,,332
2013-5-13,82,62,43,48,32,21,47,35,23,30.10,29.87,29.63,10,10,10,25,11,34,0.00,2,,173
2013-5-14,93,72,54,46,40,27,59,34,12,29.77,29.62,29.52,10,10,10,30,9,39,0.00,0,,285
2013-5-15,80,64,48,44,40,34,74,42,19,29.92,29.85,29.80,10,10,6,16,9,23,0.00,1,,270
2013-5-16,79,66,52,40,37,31,59,35,23,29.94,29.90,29.86,10,10,8,20,9,21,0.00,2,,80
2013-5-17,66,60,55,55,48,31,94,71,29,29.95,29.93,29.89,10,8,1,20,13,24,0.76,8,Rain-Thunderstorm,106
2013-5-18,75,65,55,66,59,54,100,88,68,29.93,29.87,29.77,10,6,2,17,13,25,0.25,7,Rain-Thunderstorm,122
2013-5-19,79,68,60,63,61,57,94,82,58,29.75,29.66,29.58,10,9,2,22,13,33,0.09,7,Rain-Thunderstorm,145
2013-5-20,66,60,53,61,56,48,100,90,68,29.59,29.50,29.47,10,6,0,18,10,26,0.60,8,Fog-Rain,115
2013-5-21,53,52,46,54,49,46,100,94,82,29.81,29.67,29.54,10,9,3,17,14,25,0.15,8,Rain,59
2013-5-22,57,50,44,49,46,43,100,90,72,30.11,29.88,29.78,10,7,2,22,12,31,0.30,7,Rain,46
2013-5-23,63,54,46,44,37,29,93,58,28,30.35,30.28,30.13,10,10,10,14,7,16,0.00,2,,87
2013-5-24,66,54,43,50,40,30,93,65,31,30.36,30.27,30.17,10,8,2,17,11,25,0.42,4,Rain-Thunderstorm,132
2013-5-25,60,56,51,50,48,44,93,79,67,30.22,30.20,30.15,10,10,10,21,17,29,0.00,8,,129
2013-5-26,57,52,50,47,43,40,77,70,62,30.21,30.14,30.05,10,10,10,24,15,36,0.00,8,,122
2013-5-27,63,58,53,52,49,45,86,78,67,30.05,29.93,29.85,10,9,3,17,12,24,0.00,8,,109
2013-5-28,63,58,53,55,53,52,100,91,72,29.82,29.76,29.72,10,5,0,14,9,,0.00,7,Fog,133
2013-5-29,69,61,53,64,58,52,100,90,70,29.80,29.70,29.59,10,6,0,29,10,39,0.20,6,Fog-Rain-Thunderstorm,127
2013-5-30,77,68,60,64,61,55,94,82,54,29.59,29.52,29.48,10,10,2,24,13,32,0.02,7,Rain-Thunderstorm,146
2013-5-31,63,60,57,59,53,50,94,79,67,29.55,29.47,29.42,10,10,2,22,11,31,0.37,7,Rain-Thunderstorm,163